sensor_id;sensor_type;location;lat;lon;timestamp;temperature;humidity
21489;DHT22;10906;45.194;5.684;2022-08-30T05:02:08;22.70;82.00
21489;DHT22;10906;45.194;5.684;2022-08-30T05:04:53;22.80;82.20
21489;DHT22;10906;45.194;5.684;2022-08-30T05:07:56;22.80;81.90
21489;DHT22;10906;45.194;5.684;2022-08-30T05:10:43;22.80;81.80
21489;DHT22;10906;45.194;5.684;2022-08-30T05:13:27;22.80;81.70
21489;DHT22;10906;45.194;5.684;2022-08-30T05:16:12;22.80;81.90
21489;DHT22;10906;45.194;5.684;2022-08-30T05:19:00;22.80;82.10
21489;DHT22;10906;45.194;5.684;2022-08-30T05:21:45;22.80;82.10
21489;DHT22;10906;45.194;5.684;2022-08-30T05:24:30;22.70;82.00
21489;DHT22;10906;45.194;5.684;2022-08-30T05:27:15;22.70;82.30
21489;DHT22;10906;45.194;5.684;2022-08-30T05:30:01;22.70;82.10
21489;DHT22;10906;45.194;5.684;2022-08-30T05:32:45;22.70;82.00
21489;DHT22;10906;45.194;5.684;2022-08-30T05:35:30;22.70;81.80
21489;DHT22;10906;45.194;5.684;2022-08-30T05:38:14;22.70;81.90
21489;DHT22;10906;45.194;5.684;2022-08-30T05:40:59;22.70;82.30
21489;DHT22;10906;45.194;5.684;2022-08-30T05:43:44;22.60;82.60
21489;DHT22;10906;45.194;5.684;2022-08-30T05:46:29;22.60;82.70
21489;DHT22;10906;45.194;5.684;2022-08-30T05:49:16;22.60;83.00
21489;DHT22;10906;45.194;5.684;2022-08-30T05:52:03;22.60;83.40
21489;DHT22;10906;45.194;5.684;2022-08-30T05:54:53;22.60;83.90
21489;DHT22;10906;45.194;5.684;2022-08-30T05:57:39;22.50;84.20
21489;DHT22;10906;45.194;5.684;2022-08-30T06:00:24;22.50;84.50
21489;DHT22;10906;45.194;5.684;2022-08-30T06:03:09;22.50;84.90
21489;DHT22;10906;45.194;5.684;2022-08-30T06:05:56;22.50;85.50
21489;DHT22;10906;45.194;5.684;2022-08-30T06:08:41;22.50;85.70
21489;DHT22;10906;45.194;5.684;2022-08-30T06:11:26;22.50;85.80
21489;DHT22;10906;45.194;5.684;2022-08-30T06:14:12;22.50;86.00
21489;DHT22;10906;45.194;5.684;2022-08-30T06:16:56;22.50;86.50
21489;DHT22;10906;45.194;5.684;2022-08-30T06:19:41;22.50;86.50
21489;DHT22;10906;45.194;5.684;2022-08-30T06:22:26;22.40;86.70
21489;DHT22;10906;45.194;5.684;2022-08-30T06:28:11;22.30;88.10
21489;DHT22;10906;45.194;5.684;2022-08-30T06:31:07;22.30;87.10
21489;DHT22;10906;45.194;5.684;2022-08-30T06:33:52;22.50;87.30
21489;DHT22;10906;45.194;5.684;2022-08-30T06:36:37;22.50;87.50
21489;DHT22;10906;45.194;5.684;2022-08-30T06:39:22;22.50;88.20
21489;DHT22;10906;45.194;5.684;2022-08-30T06:42:07;22.50;88.00
21489;DHT22;10906;45.194;5.684;2022-08-30T06:44:54;22.60;89.40
21489;DHT22;10906;45.194;5.684;2022-08-30T06:47:39;22.60;89.10
21489;DHT22;10906;45.194;5.684;2022-08-30T06:50:24;22.60;89.10
21489;DHT22;10906;45.194;5.684;2022-08-30T06:53:09;22.70;89.10
21489;DHT22;10906;45.194;5.684;2022-08-30T07:03:37;22.60;87.90
21489;DHT22;10906;45.194;5.684;2022-08-30T07:06:22;22.40;88.40
21489;DHT22;10906;45.194;5.684;2022-08-30T07:09:06;22.90;88.10
21489;DHT22;10906;45.194;5.684;2022-08-30T07:15:51;22.40;87.40
21489;DHT22;10906;45.194;5.684;2022-08-30T07:18:35;23.00;88.50
21489;DHT22;10906;45.194;5.684;2022-08-30T07:21:41;23.10;88.50
21489;DHT22;10906;45.194;5.684;2022-08-30T07:24:28;22.30;87.60
21489;DHT22;10906;45.194;5.684;2022-08-30T07:27:47;23.30;87.90
21489;DHT22;10906;45.194;5.684;2022-08-30T07:30:37;23.40;87.50
21489;DHT22;10906;45.194;5.684;2022-08-30T07:33:21;23.60;87.00
21489;DHT22;10906;45.194;5.684;2022-08-30T07:36:07;23.70;86.60
21489;DHT22;10906;45.194;5.684;2022-08-30T07:38:52;23.90;86.00
21489;DHT22;10906;45.194;5.684;2022-08-30T07:41:37;24.10;86.10
21489;DHT22;10906;45.194;5.684;2022-08-30T07:44:21;24.30;85.40
21489;DHT22;10906;45.194;5.684;2022-08-30T07:50:34;24.60;84.10
21489;DHT22;10906;45.194;5.684;2022-08-30T07:53:22;24.90;84.10
21489;DHT22;10906;45.194;5.684;2022-08-30T07:56:36;25.00;82.70
21489;DHT22;10906;45.194;5.684;2022-08-30T07:59:23;25.20;81.60
21489;DHT22;10906;45.194;5.684;2022-08-30T08:02:08;25.40;81.30
21489;DHT22;10906;45.194;5.684;2022-08-30T08:04:55;25.50;80.60
21489;DHT22;10906;45.194;5.684;2022-08-30T08:07:40;25.70;79.30
21489;DHT22;10906;45.194;5.684;2022-08-30T08:10:24;25.90;79.20
21489;DHT22;10906;45.194;5.684;2022-08-30T08:13:09;26.00;78.60
21489;DHT22;10906;45.194;5.684;2022-08-30T08:15:53;26.10;77.70
21489;DHT22;10906;45.194;5.684;2022-08-30T08:18:38;26.20;77.10
21489;DHT22;10906;45.194;5.684;2022-08-30T08:21:23;26.30;78.30
21489;DHT22;10906;45.194;5.684;2022-08-30T08:24:08;26.40;80.00
21489;DHT22;10906;45.194;5.684;2022-08-30T08:26:52;26.10;80.70
21489;DHT22;10906;45.194;5.684;2022-08-30T08:29:37;26.70;81.80
21489;DHT22;10906;45.194;5.684;2022-08-30T08:32:22;26.90;82.00
21489;DHT22;10906;45.194;5.684;2022-08-30T08:35:07;27.00;82.00
21489;DHT22;10906;45.194;5.684;2022-08-30T08:37:51;27.10;82.50
21489;DHT22;10906;45.194;5.684;2022-08-30T08:41:09;27.50;82.50
21489;DHT22;10906;45.194;5.684;2022-08-30T08:43:56;27.30;82.50
21489;DHT22;10906;45.194;5.684;2022-08-30T08:47:18;27.40;82.20
21489;DHT22;10906;45.194;5.684;2022-08-30T08:50:09;27.80;84.50
21489;DHT22;10906;45.194;5.684;2022-08-30T08:53:13;27.90;81.80
21489;DHT22;10906;45.194;5.684;2022-08-30T08:56:18;28.10;81.30
21489;DHT22;10906;45.194;5.684;2022-08-30T08:59:09;28.20;82.30
21489;DHT22;10906;45.194;5.684;2022-08-30T09:01:58;28.30;79.10
21489;DHT22;10906;45.194;5.684;2022-08-30T09:04:44;28.40;76.70
21489;DHT22;10906;45.194;5.684;2022-08-30T09:07:37;28.50;76.70
21489;DHT22;10906;45.194;5.684;2022-08-30T09:10:23;28.80;76.50
21489;DHT22;10906;45.194;5.684;2022-08-30T09:13:08;29.10;75.30
21489;DHT22;10906;45.194;5.684;2022-08-30T09:15:55;29.20;73.90
21489;DHT22;10906;45.194;5.684;2022-08-30T09:21:27;29.20;70.60
21489;DHT22;10906;45.194;5.684;2022-08-30T09:24:14;29.50;71.60
21489;DHT22;10906;45.194;5.684;2022-08-30T09:27:13;29.50;70.50
21489;DHT22;10906;45.194;5.684;2022-08-30T09:33:02;29.90;69.30
21489;DHT22;10906;45.194;5.684;2022-08-30T09:35:49;29.90;68.00
21489;DHT22;10906;45.194;5.684;2022-08-30T09:38:35;29.60;68.30
21489;DHT22;10906;45.194;5.684;2022-08-30T09:41:33;29.40;68.20
21489;DHT22;10906;45.194;5.684;2022-08-30T09:44:25;29.00;66.70
21489;DHT22;10906;45.194;5.684;2022-08-30T09:47:41;28.60;68.50
21489;DHT22;10906;45.194;5.684;2022-08-30T09:50:29;28.70;69.70
21489;DHT22;10906;45.194;5.684;2022-08-30T09:53:18;28.90;70.10
21489;DHT22;10906;45.194;5.684;2022-08-30T09:56:14;30.30;70.70
21489;DHT22;10906;45.194;5.684;2022-08-30T09:59:23;29.60;68.60
21489;DHT22;10906;45.194;5.684;2022-08-30T10:08:21;29.50;66.80
21489;DHT22;10906;45.194;5.684;2022-08-30T10:11:27;29.40;67.00
21489;DHT22;10906;45.194;5.684;2022-08-30T10:18:09;30.00;66.60
21489;DHT22;10906;45.194;5.684;2022-08-30T10:20:55;30.20;67.60
21489;DHT22;10906;45.194;5.684;2022-08-30T10:24:03;30.50;66.40
21489;DHT22;10906;45.194;5.684;2022-08-30T10:27:09;30.70;64.90
21489;DHT22;10906;45.194;5.684;2022-08-30T10:30:12;30.90;64.00
21489;DHT22;10906;45.194;5.684;2022-08-30T10:33:07;31.10;63.40
21489;DHT22;10906;45.194;5.684;2022-08-30T10:35:55;31.20;63.30
21489;DHT22;10906;45.194;5.684;2022-08-30T10:38:46;31.20;63.70
21489;DHT22;10906;45.194;5.684;2022-08-30T10:41:38;31.40;63.00
21489;DHT22;10906;45.194;5.684;2022-08-30T10:44:28;31.50;63.50
21489;DHT22;10906;45.194;5.684;2022-08-30T10:47:17;31.80;63.10
21489;DHT22;10906;45.194;5.684;2022-08-30T10:50:29;31.90;62.30
21489;DHT22;10906;45.194;5.684;2022-08-30T10:53:18;32.10;61.10
21489;DHT22;10906;45.194;5.684;2022-08-30T10:56:14;32.20;60.90
21489;DHT22;10906;45.194;5.684;2022-08-30T10:58:59;32.00;60.90
21489;DHT22;10906;45.194;5.684;2022-08-30T11:09:22;31.50;60.00
21489;DHT22;10906;45.194;5.684;2022-08-30T11:15:33;31.20;61.60
21489;DHT22;10906;45.194;5.684;2022-08-30T11:18:15;31.10;62.50
21489;DHT22;10906;45.194;5.684;2022-08-30T11:24:16;31.50;61.60
21489;DHT22;10906;45.194;5.684;2022-08-30T11:27:02;31.60;61.20
21489;DHT22;10906;45.194;5.684;2022-08-30T11:29:47;31.70;61.70
21489;DHT22;10906;45.194;5.684;2022-08-30T11:35:53;31.60;59.80
21489;DHT22;10906;45.194;5.684;2022-08-30T11:41:43;31.10;61.20
21489;DHT22;10906;45.194;5.684;2022-08-30T11:44:30;30.90;61.60
21489;DHT22;10906;45.194;5.684;2022-08-30T11:50:25;30.60;60.80
21489;DHT22;10906;45.194;5.684;2022-08-30T11:53:28;30.50;62.00
21489;DHT22;10906;45.194;5.684;2022-08-30T11:56:21;30.40;62.30
21489;DHT22;10906;45.194;5.684;2022-08-30T11:59:29;30.30;62.60
21489;DHT22;10906;45.194;5.684;2022-08-30T12:02:47;30.20;62.80
21489;DHT22;10906;45.194;5.684;2022-08-30T12:14:04;29.90;64.50
21489;DHT22;10906;45.194;5.684;2022-08-30T12:16:49;29.80;65.30
21489;DHT22;10906;45.194;5.684;2022-08-30T12:19:55;29.80;65.00
21489;DHT22;10906;45.194;5.684;2022-08-30T12:22:40;29.80;66.20
21489;DHT22;10906;45.194;5.684;2022-08-30T12:31:10;29.50;66.40
21489;DHT22;10906;45.194;5.684;2022-08-30T12:33:58;29.40;67.30
21489;DHT22;10906;45.194;5.684;2022-08-30T12:40:21;29.10;68.80
21489;DHT22;10906;45.194;5.684;2022-08-30T12:43:25;28.60;69.70
21489;DHT22;10906;45.194;5.684;2022-08-30T12:46:11;27.70;72.60
21489;DHT22;10906;45.194;5.684;2022-08-30T12:48:56;26.60;72.20
21489;DHT22;10906;45.194;5.684;2022-08-30T12:51:42;25.90;74.90
21489;DHT22;10906;45.194;5.684;2022-08-30T12:54:29;25.50;77.60
21489;DHT22;10906;45.194;5.684;2022-08-30T13:00:43;25.10;83.80
21489;DHT22;10906;45.194;5.684;2022-08-30T13:03:33;24.90;83.70
21489;DHT22;10906;45.194;5.684;2022-08-30T13:06:39;24.60;84.30
21489;DHT22;10906;45.194;5.684;2022-08-30T13:09:35;24.50;87.10
21489;DHT22;10906;45.194;5.684;2022-08-30T13:12:26;24.50;85.60
21489;DHT22;10906;45.194;5.684;2022-08-30T13:15:18;24.60;85.60
21489;DHT22;10906;45.194;5.684;2022-08-30T13:18:18;24.60;84.70
21489;DHT22;10906;45.194;5.684;2022-08-30T13:24:06;24.60;84.90
21489;DHT22;10906;45.194;5.684;2022-08-30T13:26:53;24.70;85.40
21489;DHT22;10906;45.194;5.684;2022-08-30T13:29:37;24.80;84.70
21489;DHT22;10906;45.194;5.684;2022-08-30T13:32:23;24.90;85.00
21489;DHT22;10906;45.194;5.684;2022-08-30T13:35:08;24.90;85.30
21489;DHT22;10906;45.194;5.684;2022-08-30T13:37:54;25.10;85.40
21489;DHT22;10906;45.194;5.684;2022-08-30T13:40:38;25.10;85.60
21489;DHT22;10906;45.194;5.684;2022-08-30T13:43:23;25.10;87.00
21489;DHT22;10906;45.194;5.684;2022-08-30T13:46:09;25.20;87.10
21489;DHT22;10906;45.194;5.684;2022-08-30T13:49:04;25.30;87.20
21489;DHT22;10906;45.194;5.684;2022-08-30T13:51:49;25.40;87.20
21489;DHT22;10906;45.194;5.684;2022-08-30T13:54:36;25.40;86.70
21489;DHT22;10906;45.194;5.684;2022-08-30T13:57:24;25.30;86.80
21489;DHT22;10906;45.194;5.684;2022-08-30T14:00:14;25.20;86.70
21489;DHT22;10906;45.194;5.684;2022-08-30T14:03:01;25.30;86.40
21489;DHT22;10906;45.194;5.684;2022-08-30T14:05:46;25.40;86.00
21489;DHT22;10906;45.194;5.684;2022-08-30T14:08:31;25.50;85.10
21489;DHT22;10906;45.194;5.684;2022-08-30T14:11:18;25.80;84.80
21489;DHT22;10906;45.194;5.684;2022-08-30T14:14:03;26.10;83.00
21489;DHT22;10906;45.194;5.684;2022-08-30T14:16:48;26.20;82.70
21489;DHT22;10906;45.194;5.684;2022-08-30T14:19:32;25.90;81.70
21489;DHT22;10906;45.194;5.684;2022-08-30T14:22:17;25.60;82.00
21489;DHT22;10906;45.194;5.684;2022-08-30T14:25:04;25.50;82.30
21489;DHT22;10906;45.194;5.684;2022-08-30T14:27:48;25.40;81.80
21489;DHT22;10906;45.194;5.684;2022-08-30T14:30:33;25.40;81.80
21489;DHT22;10906;45.194;5.684;2022-08-30T14:33:17;25.30;81.80
21489;DHT22;10906;45.194;5.684;2022-08-30T14:36:03;25.30;82.20
21489;DHT22;10906;45.194;5.684;2022-08-30T14:38:47;25.30;81.80
21489;DHT22;10906;45.194;5.684;2022-08-30T14:41:32;25.30;81.70
21489;DHT22;10906;45.194;5.684;2022-08-30T14:44:18;25.20;81.40
21489;DHT22;10906;45.194;5.684;2022-08-30T14:47:03;25.10;81.10
21489;DHT22;10906;45.194;5.684;2022-08-30T14:49:48;25.10;81.60
21489;DHT22;10906;45.194;5.684;2022-08-30T14:52:34;25.10;81.50
21489;DHT22;10906;45.194;5.684;2022-08-30T14:55:19;25.00;81.50
21489;DHT22;10906;45.194;5.684;2022-08-30T14:58:03;25.00;81.50
21489;DHT22;10906;45.194;5.684;2022-08-30T15:00:51;24.90;81.00
21489;DHT22;10906;45.194;5.684;2022-08-30T15:03:37;24.90;80.60
21489;DHT22;10906;45.194;5.684;2022-08-30T15:06:21;24.90;80.40
21489;DHT22;10906;45.194;5.684;2022-08-30T15:09:08;24.90;82.00
21489;DHT22;10906;45.194;5.684;2022-08-30T15:11:55;24.80;84.60
21489;DHT22;10906;45.194;5.684;2022-08-30T15:14:48;24.60;86.40
21489;DHT22;10906;45.194;5.684;2022-08-30T15:17:33;24.10;90.30
21489;DHT22;10906;45.194;5.684;2022-08-30T15:20:18;23.70;91.60
21489;DHT22;10906;45.194;5.684;2022-08-30T15:23:03;23.10;93.10
21489;DHT22;10906;45.194;5.684;2022-08-30T15:25:51;22.60;94.50
21489;DHT22;10906;45.194;5.684;2022-08-30T15:28:36;22.30;95.50
21489;DHT22;10906;45.194;5.684;2022-08-30T15:31:25;22.10;97.00
21489;DHT22;10906;45.194;5.684;2022-08-30T15:34:13;22.20;97.70
21489;DHT22;10906;45.194;5.684;2022-08-30T15:36:59;22.30;98.40
21489;DHT22;10906;45.194;5.684;2022-08-30T15:39:43;22.40;99.00
21489;DHT22;10906;45.194;5.684;2022-08-30T15:42:27;22.30;99.80
21489;DHT22;10906;45.194;5.684;2022-08-30T15:45:12;22.10;99.90
21489;DHT22;10906;45.194;5.684;2022-08-30T15:48:00;21.80;99.90
21489;DHT22;10906;45.194;5.684;2022-08-30T15:50:45;21.60;99.90
21489;DHT22;10906;45.194;5.684;2022-08-30T15:53:32;21.50;99.90
21489;DHT22;10906;45.194;5.684;2022-08-30T15:56:18;21.30;99.90
21489;DHT22;10906;45.194;5.684;2022-08-30T15:59:03;21.30;99.90
21489;DHT22;10906;45.194;5.684;2022-08-30T16:01:47;21.30;99.90
21489;DHT22;10906;45.194;5.684;2022-08-30T16:04:32;21.30;99.90
21489;DHT22;10906;45.194;5.684;2022-08-30T16:07:17;21.20;99.90
21489;DHT22;10906;45.194;5.684;2022-08-30T16:10:05;21.10;99.90
21489;DHT22;10906;45.194;5.684;2022-08-30T16:12:51;21.10;99.90
21489;DHT22;10906;45.194;5.684;2022-08-30T16:15:38;21.10;99.90
21489;DHT22;10906;45.194;5.684;2022-08-30T16:18:23;21.20;99.90
21489;DHT22;10906;45.194;5.684;2022-08-30T16:21:12;21.20;99.90
21489;DHT22;10906;45.194;5.684;2022-08-30T16:23:59;21.30;99.90
21489;DHT22;10906;45.194;5.684;2022-08-30T16:26:44;21.20;99.90
21489;DHT22;10906;45.194;5.684;2022-08-30T16:29:28;21.30;99.90
21489;DHT22;10906;45.194;5.684;2022-08-30T16:32:12;21.30;99.90
21489;DHT22;10906;45.194;5.684;2022-08-30T16:34:57;21.30;99.90
21489;DHT22;10906;45.194;5.684;2022-08-30T16:37:42;21.40;99.90
21489;DHT22;10906;45.194;5.684;2022-08-30T16:40:26;21.40;99.90
21489;DHT22;10906;45.194;5.684;2022-08-30T16:43:11;21.30;99.90
21489;DHT22;10906;45.194;5.684;2022-08-30T16:45:59;21.30;99.90
21489;DHT22;10906;45.194;5.684;2022-08-30T16:48:45;21.30;99.90
21489;DHT22;10906;45.194;5.684;2022-08-30T16:51:31;21.30;99.90
21489;DHT22;10906;45.194;5.684;2022-08-30T16:54:16;21.40;99.90
21489;DHT22;10906;45.194;5.684;2022-08-30T16:57:01;21.50;99.90
21489;DHT22;10906;45.194;5.684;2022-08-30T16:59:45;21.50;99.90
21489;DHT22;10906;45.194;5.684;2022-08-30T17:02:33;21.50;99.90
21489;DHT22;10906;45.194;5.684;2022-08-30T17:05:17;21.60;99.90
21489;DHT22;10906;45.194;5.684;2022-08-30T17:08:03;21.40;99.90
21489;DHT22;10906;45.194;5.684;2022-08-30T17:10:50;21.30;99.90
21489;DHT22;10906;45.194;5.684;2022-08-30T17:13:35;21.30;99.90
21489;DHT22;10906;45.194;5.684;2022-08-30T17:16:20;21.30;99.90
21489;DHT22;10906;45.194;5.684;2022-08-30T17:19:06;21.30;99.90
21489;DHT22;10906;45.194;5.684;2022-08-30T17:21:50;21.30;99.90
21489;DHT22;10906;45.194;5.684;2022-08-30T17:24:35;21.40;99.90
21489;DHT22;10906;45.194;5.684;2022-08-30T17:27:20;21.20;99.90
21489;DHT22;10906;45.194;5.684;2022-08-30T17:30:06;21.20;99.90
21489;DHT22;10906;45.194;5.684;2022-08-30T17:32:51;21.20;99.90
21489;DHT22;10906;45.194;5.684;2022-08-30T17:35:36;21.20;99.90
21489;DHT22;10906;45.194;5.684;2022-08-30T17:38:21;21.20;99.90
21489;DHT22;10906;45.194;5.684;2022-08-30T17:41:07;21.10;99.90
21489;DHT22;10906;45.194;5.684;2022-08-30T17:43:52;21.10;99.90
21489;DHT22;10906;45.194;5.684;2022-08-30T17:46:37;21.20;99.90
21489;DHT22;10906;45.194;5.684;2022-08-30T17:49:22;21.20;99.90
21489;DHT22;10906;45.194;5.684;2022-08-30T17:52:07;21.30;99.90
21489;DHT22;10906;45.194;5.684;2022-08-30T17:54:52;21.10;99.90
21489;DHT22;10906;45.194;5.684;2022-08-30T17:57:37;21.00;99.90
21489;DHT22;10906;45.194;5.684;2022-08-30T18:00:25;21.00;99.90
21489;DHT22;10906;45.194;5.684;2022-08-30T18:03:09;21.00;99.90
21489;DHT22;10906;45.194;5.684;2022-08-30T18:05:54;21.00;99.90
21489;DHT22;10906;45.194;5.684;2022-08-30T18:08:39;20.90;99.90
21489;DHT22;10906;45.194;5.684;2022-08-30T18:11:23;20.90;99.90
21489;DHT22;10906;45.194;5.684;2022-08-30T18:14:09;20.90;99.90
21489;DHT22;10906;45.194;5.684;2022-08-30T18:16:54;20.80;99.90
21489;DHT22;10906;45.194;5.684;2022-08-30T18:19:39;20.90;99.90
21489;DHT22;10906;45.194;5.684;2022-08-30T18:22:23;20.90;99.90
21489;DHT22;10906;45.194;5.684;2022-08-30T18:25:08;21.10;99.90
21489;DHT22;10906;45.194;5.684;2022-08-30T18:27:53;21.20;99.90
21489;DHT22;10906;45.194;5.684;2022-08-30T18:30:38;21.20;99.90
21489;DHT22;10906;45.194;5.684;2022-08-30T18:33:23;21.10;99.90
21489;DHT22;10906;45.194;5.684;2022-08-30T18:36:08;21.10;99.90
21489;DHT22;10906;45.194;5.684;2022-08-30T18:38:52;21.00;99.90
21489;DHT22;10906;45.194;5.684;2022-08-30T18:41:37;21.00;99.90
21489;DHT22;10906;45.194;5.684;2022-08-30T18:44:25;21.00;99.90
21489;DHT22;10906;45.194;5.684;2022-08-30T18:47:09;21.00;99.90
21489;DHT22;10906;45.194;5.684;2022-08-30T18:49:54;21.10;99.90
21489;DHT22;10906;45.194;5.684;2022-08-30T18:52:38;21.00;99.90
21489;DHT22;10906;45.194;5.684;2022-08-30T18:55:23;21.10;99.90
21489;DHT22;10906;45.194;5.684;2022-08-30T18:58:08;21.10;99.90
21489;DHT22;10906;45.194;5.684;2022-08-30T19:00:52;21.10;99.90
21489;DHT22;10906;45.194;5.684;2022-08-30T19:03:37;21.00;99.90
21489;DHT22;10906;45.194;5.684;2022-08-30T19:06:21;21.10;99.90
21489;DHT22;10906;45.194;5.684;2022-08-30T19:09:06;21.10;99.90
21489;DHT22;10906;45.194;5.684;2022-08-30T19:11:50;21.10;99.90
21489;DHT22;10906;45.194;5.684;2022-08-30T19:14:35;21.10;99.90
21489;DHT22;10906;45.194;5.684;2022-08-30T19:17:22;21.10;99.90
21489;DHT22;10906;45.194;5.684;2022-08-30T19:20:12;21.50;99.90
21489;DHT22;10906;45.194;5.684;2022-08-30T19:23:00;21.10;99.90
21489;DHT22;10906;45.194;5.684;2022-08-30T19:25:45;21.10;99.90
21489;DHT22;10906;45.194;5.684;2022-08-30T19:28:29;21.00;99.90
21489;DHT22;10906;45.194;5.684;2022-08-30T19:31:14;20.90;99.90
21489;DHT22;10906;45.194;5.684;2022-08-30T19:33:58;20.90;99.90
21489;DHT22;10906;45.194;5.684;2022-08-30T19:36:42;20.80;99.90
21489;DHT22;10906;45.194;5.684;2022-08-30T19:39:27;20.80;99.90
21489;DHT22;10906;45.194;5.684;2022-08-30T19:42:12;20.90;99.90
21489;DHT22;10906;45.194;5.684;2022-08-30T19:44:57;20.90;99.90
21489;DHT22;10906;45.194;5.684;2022-08-30T19:47:41;21.00;99.90
21489;DHT22;10906;45.194;5.684;2022-08-30T19:50:25;21.00;99.90
21489;DHT22;10906;45.194;5.684;2022-08-30T19:53:09;20.90;99.90
21489;DHT22;10906;45.194;5.684;2022-08-30T19:55:54;20.90;99.90
21489;DHT22;10906;45.194;5.684;2022-08-30T19:58:38;20.90;99.90
21489;DHT22;10906;45.194;5.684;2022-08-30T20:01:24;20.80;99.90
21489;DHT22;10906;45.194;5.684;2022-08-30T20:04:09;20.70;99.90
21489;DHT22;10906;45.194;5.684;2022-08-30T20:06:56;20.70;99.90
21489;DHT22;10906;45.194;5.684;2022-08-30T20:09:40;20.70;99.90
21489;DHT22;10906;45.194;5.684;2022-08-30T20:12:25;20.80;99.90
21489;DHT22;10906;45.194;5.684;2022-08-30T20:15:12;20.90;99.90
21489;DHT22;10906;45.194;5.684;2022-08-30T20:17:57;20.40;99.90
21489;DHT22;10906;45.194;5.684;2022-08-30T20:20:42;20.70;99.90
21489;DHT22;10906;45.194;5.684;2022-08-30T20:23:27;20.70;99.90
21489;DHT22;10906;45.194;5.684;2022-08-30T20:26:16;20.70;99.90
21489;DHT22;10906;45.194;5.684;2022-08-30T20:29:02;20.80;99.90
21489;DHT22;10906;45.194;5.684;2022-08-30T20:31:46;20.80;99.90
21489;DHT22;10906;45.194;5.684;2022-08-30T20:34:32;20.90;99.90
21489;DHT22;10906;45.194;5.684;2022-08-30T20:37:16;21.00;99.90
21489;DHT22;10906;45.194;5.684;2022-08-30T20:40:03;21.00;99.90
21489;DHT22;10906;45.194;5.684;2022-08-30T20:42:47;20.90;99.90
21489;DHT22;10906;45.194;5.684;2022-08-30T20:45:32;20.80;99.90
21489;DHT22;10906;45.194;5.684;2022-08-30T20:48:17;20.70;99.90
21489;DHT22;10906;45.194;5.684;2022-08-30T20:51:05;20.70;99.90
21489;DHT22;10906;45.194;5.684;2022-08-30T20:53:50;20.70;99.90
21489;DHT22;10906;45.194;5.684;2022-08-30T20:56:35;20.70;99.90
21489;DHT22;10906;45.194;5.684;2022-08-30T20:59:19;20.80;99.90
21489;DHT22;10906;45.194;5.684;2022-08-30T21:02:07;20.80;99.90
21489;DHT22;10906;45.194;5.684;2022-08-30T21:04:52;20.90;99.90
21489;DHT22;10906;45.194;5.684;2022-08-30T21:07:37;20.80;99.90
21489;DHT22;10906;45.194;5.684;2022-08-30T21:10:25;20.70;99.90
21489;DHT22;10906;45.194;5.684;2022-08-30T21:13:09;20.70;99.90
21489;DHT22;10906;45.194;5.684;2022-08-30T21:15:56;20.60;99.90
21489;DHT22;10906;45.194;5.684;2022-08-30T21:18:40;20.70;99.90
21489;DHT22;10906;45.194;5.684;2022-08-30T21:21:25;20.60;99.90
21489;DHT22;10906;45.194;5.684;2022-08-30T21:24:10;20.70;99.90
21489;DHT22;10906;45.194;5.684;2022-08-30T21:26:55;20.70;99.90
21489;DHT22;10906;45.194;5.684;2022-08-30T21:29:40;20.70;99.90
21489;DHT22;10906;45.194;5.684;2022-08-30T21:32:24;20.70;99.90
21489;DHT22;10906;45.194;5.684;2022-08-30T21:35:09;20.80;99.90
21489;DHT22;10906;45.194;5.684;2022-08-30T21:38:12;20.80;99.90
21489;DHT22;10906;45.194;5.684;2022-08-30T21:40:58;20.90;99.90
21489;DHT22;10906;45.194;5.684;2022-08-30T21:43:43;20.90;99.90
21489;DHT22;10906;45.194;5.684;2022-08-30T21:46:29;20.70;99.90
21489;DHT22;10906;45.194;5.684;2022-08-30T21:49:24;20.70;99.90
21489;DHT22;10906;45.194;5.684;2022-08-30T21:52:09;20.60;99.90
21489;DHT22;10906;45.194;5.684;2022-08-30T21:54:53;20.70;99.90
21489;DHT22;10906;45.194;5.684;2022-08-30T21:57:38;20.70;99.90
